sensor_id;sensor_type;location;lat;lon;timestamp;P1;durP1;ratioP1;P2;durP2;ratioP2
17967;SDS011;9109;48.050;11.696;2023-03-07T00:00:14;28.67;;;9.70;;
17967;SDS011;9109;48.050;11.696;2023-03-07T04:46:26;19.97;;;8.10;;
17967;SDS011;9109;48.050;11.696;2023-03-07T04:49:28;17.73;;;7.93;;
17967;SDS011;9109;48.050;11.696;2023-03-07T04:52:30;21.43;;;9.13;;
17967;SDS011;9109;48.050;11.696;2023-03-07T04:55:32;20.07;;;9.10;;
17967;SDS011;9109;48.050;11.696;2023-03-07T04:58:35;21.87;;;8.30;;
17967;SDS011;9109;48.050;11.696;2023-03-07T05:01:38;24.60;;;9.37;;
17967;SDS011;9109;48.050;11.696;2023-03-07T05:04:40;19.37;;;8.53;;
17967;SDS011;9109;48.050;11.696;2023-03-07T05:07:42;22.97;;;9.50;;
17967;SDS011;9109;48.050;11.696;2023-03-07T05:10:44;23.80;;;9.50;;
17967;SDS011;9109;48.050;11.696;2023-03-07T05:13:46;23.80;;;9.20;;
17967;SDS011;9109;48.050;11.696;2023-03-07T05:16:49;19.53;;;8.50;;
17967;SDS011;9109;48.050;11.696;2023-03-07T05:19:51;20.93;;;9.00;;
17967;SDS011;9109;48.050;11.696;2023-03-07T05:22:54;25.10;;;9.13;;
17967;SDS011;9109;48.050;11.696;2023-03-07T05:25:56;17.27;;;8.70;;
17967;SDS011;9109;48.050;11.696;2023-03-07T05:28:58;23.07;;;9.90;;
17967;SDS011;9109;48.050;11.696;2023-03-07T05:32:02;21.03;;;8.90;;
17967;SDS011;9109;48.050;11.696;2023-03-07T05:35:04;25.13;;;9.60;;
17967;SDS011;9109;48.050;11.696;2023-03-07T05:38:07;23.20;;;9.67;;
17967;SDS011;9109;48.050;11.696;2023-03-07T05:41:10;20.37;;;8.80;;
17967;SDS011;9109;48.050;11.696;2023-03-07T05:44:16;25.63;;;9.57;;
17967;SDS011;9109;48.050;11.696;2023-03-07T05:47:19;21.80;;;9.43;;
17967;SDS011;9109;48.050;11.696;2023-03-07T05:50:29;19.73;;;9.00;;
17967;SDS011;9109;48.050;11.696;2023-03-07T05:54:14;23.57;;;9.80;;
17967;SDS011;9109;48.050;11.696;2023-03-07T06:06:31;25.47;;;9.20;;
17967;SDS011;9109;48.050;11.696;2023-03-07T06:09:33;26.87;;;9.60;;
17967;SDS011;9109;48.050;11.696;2023-03-07T06:12:35;23.30;;;8.60;;
17967;SDS011;9109;48.050;11.696;2023-03-07T06:15:37;25.03;;;9.73;;
17967;SDS011;9109;48.050;11.696;2023-03-07T06:18:39;22.27;;;8.90;;
17967;SDS011;9109;48.050;11.696;2023-03-07T06:21:42;23.17;;;9.77;;
17967;SDS011;9109;48.050;11.696;2023-03-07T06:24:44;23.27;;;10.20;;
17967;SDS011;9109;48.050;11.696;2023-03-07T06:27:46;26.37;;;10.27;;
17967;SDS011;9109;48.050;11.696;2023-03-07T06:30:48;25.33;;;9.23;;
17967;SDS011;9109;48.050;11.696;2023-03-07T06:33:51;20.20;;;8.50;;
17967;SDS011;9109;48.050;11.696;2023-03-07T06:36:54;21.77;;;9.50;;
17967;SDS011;9109;48.050;11.696;2023-03-07T06:39:56;23.53;;;9.50;;
17967;SDS011;9109;48.050;11.696;2023-03-07T06:42:58;19.97;;;8.83;;
17967;SDS011;9109;48.050;11.696;2023-03-07T06:46:00;20.70;;;9.63;;
17967;SDS011;9109;48.050;11.696;2023-03-07T06:49:02;27.37;;;9.70;;
17967;SDS011;9109;48.050;11.696;2023-03-07T06:52:06;21.90;;;8.83;;
17967;SDS011;9109;48.050;11.696;2023-03-07T06:55:08;21.50;;;9.40;;
17967;SDS011;9109;48.050;11.696;2023-03-07T06:58:10;25.40;;;9.20;;
17967;SDS011;9109;48.050;11.696;2023-03-07T07:01:15;23.63;;;9.57;;
17967;SDS011;9109;48.050;11.696;2023-03-07T07:04:18;27.07;;;9.50;;
17967;SDS011;9109;48.050;11.696;2023-03-07T07:07:21;21.80;;;8.60;;
17967;SDS011;9109;48.050;11.696;2023-03-07T07:10:23;23.17;;;9.67;;
17967;SDS011;9109;48.050;11.696;2023-03-07T07:13:24;29.43;;;10.23;;
17967;SDS011;9109;48.050;11.696;2023-03-07T07:16:26;23.53;;;10.40;;
17967;SDS011;9109;48.050;11.696;2023-03-07T07:19:29;27.80;;;10.30;;
17967;SDS011;9109;48.050;11.696;2023-03-07T07:22:32;24.53;;;9.90;;
17967;SDS011;9109;48.050;11.696;2023-03-07T07:25:36;23.00;;;9.87;;
17967;SDS011;9109;48.050;11.696;2023-03-07T07:28:38;28.50;;;10.53;;
17967;SDS011;9109;48.050;11.696;2023-03-07T07:31:40;26.33;;;10.77;;
17967;SDS011;9109;48.050;11.696;2023-03-07T07:34:42;26.60;;;10.43;;
17967;SDS011;9109;48.050;11.696;2023-03-07T07:37:45;27.60;;;10.73;;
17967;SDS011;9109;48.050;11.696;2023-03-07T07:40:47;29.70;;;10.07;;
17967;SDS011;9109;48.050;11.696;2023-03-07T07:43:51;27.17;;;9.67;;
17967;SDS011;9109;48.050;11.696;2023-03-07T07:46:53;20.27;;;9.20;;
17967;SDS011;9109;48.050;11.696;2023-03-07T07:49:55;23.67;;;9.50;;
17967;SDS011;9109;48.050;11.696;2023-03-07T07:52:58;23.93;;;9.53;;
17967;SDS011;9109;48.050;11.696;2023-03-07T07:56:00;26.97;;;9.77;;
17967;SDS011;9109;48.050;11.696;2023-03-07T07:59:02;23.70;;;9.60;;
17967;SDS011;9109;48.050;11.696;2023-03-07T08:02:04;26.73;;;10.57;;
17967;SDS011;9109;48.050;11.696;2023-03-07T08:05:06;24.43;;;11.40;;
17967;SDS011;9109;48.050;11.696;2023-03-07T08:08:11;27.43;;;10.43;;
17967;SDS011;9109;48.050;11.696;2023-03-07T08:11:13;30.53;;;10.97;;
17967;SDS011;9109;48.050;11.696;2023-03-07T08:14:15;23.37;;;9.73;;
17967;SDS011;9109;48.050;11.696;2023-03-07T08:17:16;26.03;;;9.93;;
17967;SDS011;9109;48.050;11.696;2023-03-07T08:20:18;26.77;;;9.17;;
17967;SDS011;9109;48.050;11.696;2023-03-07T08:23:22;26.23;;;9.87;;
17967;SDS011;9109;48.050;11.696;2023-03-07T08:26:24;24.00;;;9.10;;
17967;SDS011;9109;48.050;11.696;2023-03-07T08:29:26;23.73;;;9.53;;
17967;SDS011;9109;48.050;11.696;2023-03-07T08:32:28;20.50;;;8.57;;
17967;SDS011;9109;48.050;11.696;2023-03-07T08:35:30;23.83;;;8.43;;
17967;SDS011;9109;48.050;11.696;2023-03-07T08:38:34;18.23;;;8.53;;
17967;SDS011;9109;48.050;11.696;2023-03-07T08:41:36;24.03;;;9.53;;
17967;SDS011;9109;48.050;11.696;2023-03-07T08:44:38;25.60;;;9.93;;
17967;SDS011;9109;48.050;11.696;2023-03-07T08:47:39;22.87;;;9.00;;
17967;SDS011;9109;48.050;11.696;2023-03-07T08:50:41;16.53;;;7.90;;
17967;SDS011;9109;48.050;11.696;2023-03-07T08:53:45;17.37;;;7.83;;
17967;SDS011;9109;48.050;11.696;2023-03-07T08:56:47;18.50;;;8.33;;
17967;SDS011;9109;48.050;11.696;2023-03-07T08:59:49;22.47;;;9.00;;
17967;SDS011;9109;48.050;11.696;2023-03-07T09:02:51;23.40;;;8.97;;
17967;SDS011;9109;48.050;11.696;2023-03-07T09:05:53;19.67;;;8.10;;
17967;SDS011;9109;48.050;11.696;2023-03-07T09:08:56;16.80;;;7.43;;
17967;SDS011;9109;48.050;11.696;2023-03-07T09:11:58;17.70;;;8.03;;
17967;SDS011;9109;48.050;11.696;2023-03-07T09:15:00;21.60;;;8.20;;
17967;SDS011;9109;48.050;11.696;2023-03-07T09:18:02;19.00;;;7.67;;
17967;SDS011;9109;48.050;11.696;2023-03-07T09:21:05;19.37;;;7.67;;
17967;SDS011;9109;48.050;11.696;2023-03-07T09:24:08;20.90;;;8.03;;
17967;SDS011;9109;48.050;11.696;2023-03-07T09:27:10;18.57;;;8.20;;
17967;SDS011;9109;48.050;11.696;2023-03-07T09:30:12;24.33;;;8.43;;
17967;SDS011;9109;48.050;11.696;2023-03-07T09:33:15;24.83;;;9.07;;
17967;SDS011;9109;48.050;11.696;2023-03-07T09:36:18;21.40;;;8.47;;
17967;SDS011;9109;48.050;11.696;2023-03-07T09:39:22;22.50;;;9.37;;
17967;SDS011;9109;48.050;11.696;2023-03-07T09:42:24;20.87;;;7.90;;
17967;SDS011;9109;48.050;11.696;2023-03-07T09:45:36;30.43;;;9.97;;
17967;SDS011;9109;48.050;11.696;2023-03-07T09:52:17;17.07;;;6.97;;
17967;SDS011;9109;48.050;11.696;2023-03-07T09:55:22;19.43;;;7.83;;
17967;SDS011;9109;48.050;11.696;2023-03-07T09:58:25;17.37;;;7.80;;
17967;SDS011;9109;48.050;11.696;2023-03-07T10:01:28;26.37;;;7.33;;
17967;SDS011;9109;48.050;11.696;2023-03-07T10:04:34;21.30;;;7.57;;
17967;SDS011;9109;48.050;11.696;2023-03-07T10:07:42;20.13;;;7.83;;
17967;SDS011;9109;48.050;11.696;2023-03-07T10:10:48;14.53;;;6.73;;
17967;SDS011;9109;48.050;11.696;2023-03-07T10:17:34;30.40;;;7.47;;
17967;SDS011;9109;48.050;11.696;2023-03-07T10:20:52;17.27;;;7.03;;
17967;SDS011;9109;48.050;11.696;2023-03-07T10:27:37;24.27;;;7.67;;
17967;SDS011;9109;48.050;11.696;2023-03-07T10:30:39;16.97;;;7.33;;
17967;SDS011;9109;48.050;11.696;2023-03-07T10:33:42;24.73;;;8.33;;
17967;SDS011;9109;48.050;11.696;2023-03-07T10:36:47;16.03;;;7.00;;
17967;SDS011;9109;48.050;11.696;2023-03-07T10:39:52;22.37;;;7.53;;
17967;SDS011;9109;48.050;11.696;2023-03-07T10:42:56;20.43;;;8.43;;
17967;SDS011;9109;48.050;11.696;2023-03-07T10:46:00;20.83;;;8.03;;
17967;SDS011;9109;48.050;11.696;2023-03-07T10:49:12;21.33;;;7.90;;
17967;SDS011;9109;48.050;11.696;2023-03-07T10:52:19;16.17;;;7.13;;
17967;SDS011;9109;48.050;11.696;2023-03-07T10:55:38;17.90;;;7.87;;
17967;SDS011;9109;48.050;11.696;2023-03-07T11:02:25;16.80;;;7.17;;
17967;SDS011;9109;48.050;11.696;2023-03-07T11:05:30;20.47;;;7.73;;
17967;SDS011;9109;48.050;11.696;2023-03-07T11:08:35;24.60;;;7.53;;
17967;SDS011;9109;48.050;11.696;2023-03-07T11:11:37;19.23;;;7.77;;
17967;SDS011;9109;48.050;11.696;2023-03-07T11:14:46;16.13;;;7.30;;
17967;SDS011;9109;48.050;11.696;2023-03-07T11:17:49;18.97;;;7.07;;
17967;SDS011;9109;48.050;11.696;2023-03-07T11:20:52;17.67;;;7.33;;
17967;SDS011;9109;48.050;11.696;2023-03-07T11:23:58;18.23;;;7.87;;
17967;SDS011;9109;48.050;11.696;2023-03-07T11:27:01;18.40;;;8.03;;
17967;SDS011;9109;48.050;11.696;2023-03-07T11:33:31;16.70;;;7.53;;
17967;SDS011;9109;48.050;11.696;2023-03-07T11:36:45;17.23;;;7.73;;
17967;SDS011;9109;48.050;11.696;2023-03-07T11:39:54;17.97;;;7.40;;
17967;SDS011;9109;48.050;11.696;2023-03-07T11:43:05;17.53;;;7.63;;
17967;SDS011;9109;48.050;11.696;2023-03-07T11:46:21;20.07;;;8.43;;
17967;SDS011;9109;48.050;11.696;2023-03-07T11:49:42;16.60;;;7.37;;
17967;SDS011;9109;48.050;11.696;2023-03-07T11:53:00;16.87;;;7.53;;
17967;SDS011;9109;48.050;11.696;2023-03-07T11:56:25;16.30;;;7.40;;
17967;SDS011;9109;48.050;11.696;2023-03-07T11:59:37;18.60;;;7.93;;
17967;SDS011;9109;48.050;11.696;2023-03-07T12:02:56;22.93;;;8.20;;
17967;SDS011;9109;48.050;11.696;2023-03-07T12:06:19;18.07;;;7.90;;
17967;SDS011;9109;48.050;11.696;2023-03-07T12:09:30;18.77;;;7.57;;
17967;SDS011;9109;48.050;11.696;2023-03-07T12:12:46;19.53;;;7.90;;
17967;SDS011;9109;48.050;11.696;2023-03-07T12:16:14;21.57;;;8.43;;
17967;SDS011;9109;48.050;11.696;2023-03-07T12:19:35;19.97;;;8.10;;
17967;SDS011;9109;48.050;11.696;2023-03-07T12:23:09;17.53;;;8.27;;
17967;SDS011;9109;48.050;11.696;2023-03-07T12:26:19;16.53;;;7.57;;
17967;SDS011;9109;48.050;11.696;2023-03-07T12:29:27;18.20;;;8.20;;
17967;SDS011;9109;48.050;11.696;2023-03-07T12:32:36;15.23;;;7.90;;
17967;SDS011;9109;48.050;11.696;2023-03-07T12:35:40;19.53;;;9.50;;
17967;SDS011;9109;48.050;11.696;2023-03-07T12:38:47;23.53;;;9.10;;
17967;SDS011;9109;48.050;11.696;2023-03-07T12:41:56;23.90;;;8.37;;
17967;SDS011;9109;48.050;11.696;2023-03-07T12:45:02;21.47;;;8.53;;
17967;SDS011;9109;48.050;11.696;2023-03-07T12:48:15;23.03;;;8.20;;
17967;SDS011;9109;48.050;11.696;2023-03-07T12:51:21;17.13;;;8.53;;
17967;SDS011;9109;48.050;11.696;2023-03-07T12:54:26;18.83;;;8.57;;
17967;SDS011;9109;48.050;11.696;2023-03-07T12:57:31;19.27;;;8.23;;
17967;SDS011;9109;48.050;11.696;2023-03-07T13:00:38;22.53;;;8.93;;
17967;SDS011;9109;48.050;11.696;2023-03-07T13:03:50;19.87;;;8.70;;
17967;SDS011;9109;48.050;11.696;2023-03-07T13:07:00;21.67;;;8.83;;
17967;SDS011;9109;48.050;11.696;2023-03-07T13:10:08;18.90;;;8.30;;
17967;SDS011;9109;48.050;11.696;2023-03-07T13:16:51;21.77;;;9.00;;
17967;SDS011;9109;48.050;11.696;2023-03-07T13:19:55;21.13;;;9.60;;
17967;SDS011;9109;48.050;11.696;2023-03-07T13:22:59;20.73;;;8.97;;
17967;SDS011;9109;48.050;11.696;2023-03-07T13:26:12;23.07;;;9.50;;
17967;SDS011;9109;48.050;11.696;2023-03-07T13:32:58;21.10;;;8.73;;
17967;SDS011;9109;48.050;11.696;2023-03-07T13:36:02;18.70;;;8.33;;
17967;SDS011;9109;48.050;11.696;2023-03-07T13:42:45;21.30;;;9.50;;
17967;SDS011;9109;48.050;11.696;2023-03-07T13:45:49;20.23;;;9.50;;
17967;SDS011;9109;48.050;11.696;2023-03-07T13:48:59;20.17;;;9.03;;
17967;SDS011;9109;48.050;11.696;2023-03-07T13:52:21;21.27;;;8.87;;
17967;SDS011;9109;48.050;11.696;2023-03-07T13:55:38;18.63;;;8.43;;
17967;SDS011;9109;48.050;11.696;2023-03-07T13:58:43;20.27;;;8.80;;
17967;SDS011;9109;48.050;11.696;2023-03-07T14:01:50;22.73;;;9.67;;
17967;SDS011;9109;48.050;11.696;2023-03-07T14:05:00;21.73;;;8.60;;
17967;SDS011;9109;48.050;11.696;2023-03-07T14:08:06;17.53;;;8.13;;
17967;SDS011;9109;48.050;11.696;2023-03-07T14:11:15;18.50;;;7.97;;
17967;SDS011;9109;48.050;11.696;2023-03-07T14:14:29;19.20;;;8.77;;
17967;SDS011;9109;48.050;11.696;2023-03-07T14:17:48;25.03;;;8.60;;
17967;SDS011;9109;48.050;11.696;2023-03-07T14:21:01;16.43;;;8.13;;
17967;SDS011;9109;48.050;11.696;2023-03-07T14:24:24;18.07;;;8.60;;
17967;SDS011;9109;48.050;11.696;2023-03-07T14:27:48;20.57;;;8.67;;
17967;SDS011;9109;48.050;11.696;2023-03-07T14:30:52;21.20;;;8.07;;
17967;SDS011;9109;48.050;11.696;2023-03-07T14:33:55;17.43;;;8.03;;
17967;SDS011;9109;48.050;11.696;2023-03-07T14:36:58;16.90;;;8.27;;
17967;SDS011;9109;48.050;11.696;2023-03-07T14:40:18;18.20;;;8.03;;
17967;SDS011;9109;48.050;11.696;2023-03-07T14:43:35;24.43;;;8.33;;
17967;SDS011;9109;48.050;11.696;2023-03-07T14:46:47;20.17;;;7.47;;
17967;SDS011;9109;48.050;11.696;2023-03-07T14:50:01;18.53;;;7.20;;
17967;SDS011;9109;48.050;11.696;2023-03-07T14:53:12;20.43;;;7.70;;
17967;SDS011;9109;48.050;11.696;2023-03-07T14:56:19;18.77;;;7.57;;
17967;SDS011;9109;48.050;11.696;2023-03-07T14:59:23;13.80;;;6.93;;
17967;SDS011;9109;48.050;11.696;2023-03-07T15:02:25;18.00;;;8.03;;
17967;SDS011;9109;48.050;11.696;2023-03-07T15:05:28;20.50;;;8.57;;
17967;SDS011;9109;48.050;11.696;2023-03-07T15:08:32;18.33;;;8.17;;
17967;SDS011;9109;48.050;11.696;2023-03-07T15:11:39;15.57;;;7.13;;
17967;SDS011;9109;48.050;11.696;2023-03-07T15:14:45;21.40;;;7.53;;
17967;SDS011;9109;48.050;11.696;2023-03-07T15:17:49;15.30;;;7.40;;
17967;SDS011;9109;48.050;11.696;2023-03-07T15:20:53;20.83;;;7.63;;
17967;SDS011;9109;48.050;11.696;2023-03-07T15:23:56;20.17;;;7.30;;
17967;SDS011;9109;48.050;11.696;2023-03-07T15:27:08;19.00;;;7.73;;
17967;SDS011;9109;48.050;11.696;2023-03-07T15:30:20;20.27;;;8.17;;
17967;SDS011;9109;48.050;11.696;2023-03-07T15:33:25;19.83;;;8.10;;
17967;SDS011;9109;48.050;11.696;2023-03-07T15:36:29;23.03;;;7.50;;
17967;SDS011;9109;48.050;11.696;2023-03-07T15:39:32;22.83;;;7.97;;
17967;SDS011;9109;48.050;11.696;2023-03-07T15:42:47;14.37;;;7.10;;
17967;SDS011;9109;48.050;11.696;2023-03-07T15:45:57;19.47;;;7.27;;
17967;SDS011;9109;48.050;11.696;2023-03-07T15:49:02;17.33;;;7.07;;
17967;SDS011;9109;48.050;11.696;2023-03-07T15:52:04;17.77;;;7.50;;
17967;SDS011;9109;48.050;11.696;2023-03-07T15:55:14;17.00;;;6.97;;
17967;SDS011;9109;48.050;11.696;2023-03-07T15:58:19;20.57;;;7.57;;
17967;SDS011;9109;48.050;11.696;2023-03-07T16:01:22;19.27;;;8.27;;
17967;SDS011;9109;48.050;11.696;2023-03-07T16:04:30;21.43;;;7.47;;
17967;SDS011;9109;48.050;11.696;2023-03-07T16:07:36;17.63;;;7.30;;
17967;SDS011;9109;48.050;11.696;2023-03-07T16:10:39;17.60;;;7.10;;
17967;SDS011;9109;48.050;11.696;2023-03-07T16:13:49;16.27;;;7.17;;
17967;SDS011;9109;48.050;11.696;2023-03-07T16:16:52;13.73;;;6.43;;
17967;SDS011;9109;48.050;11.696;2023-03-07T16:19:55;21.17;;;7.20;;
17967;SDS011;9109;48.050;11.696;2023-03-07T16:22:57;14.77;;;6.77;;
17967;SDS011;9109;48.050;11.696;2023-03-07T16:26:00;19.57;;;7.30;;
17967;SDS011;9109;48.050;11.696;2023-03-07T16:29:05;16.40;;;7.70;;
17967;SDS011;9109;48.050;11.696;2023-03-07T16:32:10;17.97;;;7.27;;
17967;SDS011;9109;48.050;11.696;2023-03-07T16:35:14;15.97;;;7.13;;
17967;SDS011;9109;48.050;11.696;2023-03-07T16:38:17;16.47;;;6.70;;
17967;SDS011;9109;48.050;11.696;2023-03-07T16:41:20;17.67;;;7.07;;
17967;SDS011;9109;48.050;11.696;2023-03-07T16:44:24;15.57;;;7.27;;
17967;SDS011;9109;48.050;11.696;2023-03-07T16:47:27;14.37;;;6.70;;
17967;SDS011;9109;48.050;11.696;2023-03-07T16:50:31;18.40;;;6.47;;
17967;SDS011;9109;48.050;11.696;2023-03-07T16:53:33;14.20;;;6.03;;
17967;SDS011;9109;48.050;11.696;2023-03-07T16:56:35;13.57;;;6.17;;
17967;SDS011;9109;48.050;11.696;2023-03-07T16:59:42;16.07;;;7.13;;
17967;SDS011;9109;48.050;11.696;2023-03-07T17:02:47;14.80;;;6.37;;
17967;SDS011;9109;48.050;11.696;2023-03-07T17:05:51;16.60;;;6.93;;
17967;SDS011;9109;48.050;11.696;2023-03-07T17:08:53;16.60;;;7.10;;
17967;SDS011;9109;48.050;11.696;2023-03-07T17:11:55;15.20;;;7.10;;
17967;SDS011;9109;48.050;11.696;2023-03-07T17:14:58;16.50;;;7.17;;
17967;SDS011;9109;48.050;11.696;2023-03-07T17:18:01;15.63;;;6.90;;
17967;SDS011;9109;48.050;11.696;2023-03-07T17:21:03;17.13;;;7.60;;
17967;SDS011;9109;48.050;11.696;2023-03-07T17:24:05;16.60;;;7.03;;
17967;SDS011;9109;48.050;11.696;2023-03-07T17:27:07;15.43;;;6.20;;
17967;SDS011;9109;48.050;11.696;2023-03-07T17:30:11;15.93;;;7.20;;
17967;SDS011;9109;48.050;11.696;2023-03-07T17:33:19;16.40;;;7.00;;
17967;SDS011;9109;48.050;11.696;2023-03-07T17:36:21;20.97;;;6.73;;
17967;SDS011;9109;48.050;11.696;2023-03-07T17:39:23;18.70;;;6.17;;
17967;SDS011;9109;48.050;11.696;2023-03-07T17:42:25;18.97;;;7.50;;
17967;SDS011;9109;48.050;11.696;2023-03-07T17:45:28;17.03;;;7.53;;
17967;SDS011;9109;48.050;11.696;2023-03-07T17:48:30;23.10;;;7.20;;
17967;SDS011;9109;48.050;11.696;2023-03-07T17:51:32;16.37;;;7.10;;
17967;SDS011;9109;48.050;11.696;2023-03-07T17:54:34;18.80;;;7.30;;
17967;SDS011;9109;48.050;11.696;2023-03-07T17:57:36;18.10;;;7.30;;
17967;SDS011;9109;48.050;11.696;2023-03-07T18:00:39;19.17;;;7.47;;
17967;SDS011;9109;48.050;11.696;2023-03-07T18:03:42;17.73;;;8.00;;
17967;SDS011;9109;48.050;11.696;2023-03-07T18:06:44;21.57;;;7.40;;
17967;SDS011;9109;48.050;11.696;2023-03-07T18:09:46;23.53;;;8.53;;
17967;SDS011;9109;48.050;11.696;2023-03-07T18:12:48;18.73;;;8.27;;
17967;SDS011;9109;48.050;11.696;2023-03-07T18:15:53;21.00;;;7.30;;
17967;SDS011;9109;48.050;11.696;2023-03-07T18:18:56;17.57;;;7.33;;
17967;SDS011;9109;48.050;11.696;2023-03-07T18:21:58;18.63;;;7.37;;
17967;SDS011;9109;48.050;11.696;2023-03-07T18:25:00;24.60;;;8.40;;
17967;SDS011;9109;48.050;11.696;2023-03-07T18:28:03;18.50;;;7.43;;
17967;SDS011;9109;48.050;11.696;2023-03-07T18:31:07;29.87;;;8.67;;
17967;SDS011;9109;48.050;11.696;2023-03-07T18:34:13;20.00;;;8.63;;
17967;SDS011;9109;48.050;11.696;2023-03-07T18:37:15;19.17;;;7.70;;
17967;SDS011;9109;48.050;11.696;2023-03-07T18:40:17;20.23;;;9.00;;
17967;SDS011;9109;48.050;11.696;2023-03-07T18:43:21;19.23;;;8.77;;
17967;SDS011;9109;48.050;11.696;2023-03-07T18:46:25;21.20;;;9.00;;
17967;SDS011;9109;48.050;11.696;2023-03-07T18:49:29;22.73;;;7.93;;
17967;SDS011;9109;48.050;11.696;2023-03-07T18:52:31;19.57;;;8.03;;
17967;SDS011;9109;48.050;11.696;2023-03-07T18:55:35;17.90;;;7.87;;
17967;SDS011;9109;48.050;11.696;2023-03-07T18:58:38;21.00;;;8.20;;
17967;SDS011;9109;48.050;11.696;2023-03-07T19:01:42;16.97;;;7.43;;
17967;SDS011;9109;48.050;11.696;2023-03-07T19:04:44;18.20;;;7.77;;
17967;SDS011;9109;48.050;11.696;2023-03-07T19:07:46;22.13;;;8.80;;
17967;SDS011;9109;48.050;11.696;2023-03-07T19:10:48;17.50;;;8.00;;
17967;SDS011;9109;48.050;11.696;2023-03-07T19:13:52;17.30;;;7.13;;
17967;SDS011;9109;48.050;11.696;2023-03-07T19:16:56;21.57;;;8.53;;
17967;SDS011;9109;48.050;11.696;2023-03-07T19:19:58;25.50;;;8.23;;
17967;SDS011;9109;48.050;11.696;2023-03-07T19:23:00;23.80;;;8.40;;
17967;SDS011;9109;48.050;11.696;2023-03-07T19:26:02;23.27;;;8.07;;
17967;SDS011;9109;48.050;11.696;2023-03-07T19:29:05;18.70;;;8.47;;
17967;SDS011;9109;48.050;11.696;2023-03-07T19:32:10;24.53;;;7.87;;
17967;SDS011;9109;48.050;11.696;2023-03-07T19:35:13;21.63;;;7.93;;
17967;SDS011;9109;48.050;11.696;2023-03-07T19:38:15;19.27;;;7.43;;
17967;SDS011;9109;48.050;11.696;2023-03-07T19:41:17;18.90;;;8.03;;
17967;SDS011;9109;48.050;11.696;2023-03-07T19:44:21;21.10;;;8.67;;
17967;SDS011;9109;48.050;11.696;2023-03-07T19:47:25;24.97;;;9.00;;
17967;SDS011;9109;48.050;11.696;2023-03-07T19:50:27;22.43;;;8.50;;
17967;SDS011;9109;48.050;11.696;2023-03-07T19:53:28;23.20;;;9.33;;
17967;SDS011;9109;48.050;11.696;2023-03-07T19:56:31;21.57;;;9.33;;
17967;SDS011;9109;48.050;11.696;2023-03-07T19:59:33;21.10;;;8.70;;
17967;SDS011;9109;48.050;11.696;2023-03-07T20:02:36;18.97;;;7.67;;
17967;SDS011;9109;48.050;11.696;2023-03-07T20:05:39;22.03;;;9.17;;
17967;SDS011;9109;48.050;11.696;2023-03-07T20:08:41;16.50;;;8.03;;
17967;SDS011;9109;48.050;11.696;2023-03-07T20:11:43;21.27;;;8.33;;
17967;SDS011;9109;48.050;11.696;2023-03-07T20:14:45;17.37;;;8.37;;
17967;SDS011;9109;48.050;11.696;2023-03-07T20:17:49;23.80;;;9.23;;
17967;SDS011;9109;48.050;11.696;2023-03-07T20:20:51;24.07;;;9.77;;
17967;SDS011;9109;48.050;11.696;2023-03-07T20:23:53;27.90;;;8.47;;
17967;SDS011;9109;48.050;11.696;2023-03-07T20:26:58;31.93;;;9.23;;
17967;SDS011;9109;48.050;11.696;2023-03-07T20:30:00;20.27;;;8.83;;
17967;SDS011;9109;48.050;11.696;2023-03-07T20:33:06;19.60;;;8.60;;
17967;SDS011;9109;48.050;11.696;2023-03-07T20:36:20;24.70;;;8.73;;
17967;SDS011;9109;48.050;11.696;2023-03-07T20:39:59;29.40;;;8.87;;
17967;SDS011;9109;48.050;11.696;2023-03-07T20:43:09;20.20;;;8.20;;
17967;SDS011;9109;48.050;11.696;2023-03-07T20:50:02;18.57;;;8.20;;
17967;SDS011;9109;48.050;11.696;2023-03-07T20:53:44;27.87;;;9.20;;
17967;SDS011;9109;48.050;11.696;2023-03-07T21:22:15;32.87;;;10.10;;
17967;SDS011;9109;48.050;11.696;2023-03-07T21:29:42;21.87;;;8.70;;
17967;SDS011;9109;48.050;11.696;2023-03-07T21:33:16;21.97;;;9.33;;
17967;SDS011;9109;48.050;11.696;2023-03-07T21:38:04;24.83;;;9.47;;
17967;SDS011;9109;48.050;11.696;2023-03-07T22:12:07;25.40;;;9.07;;
17967;SDS011;9109;48.050;11.696;2023-03-07T22:15:30;23.33;;;9.63;;
17967;SDS011;9109;48.050;11.696;2023-03-07T22:18:58;29.60;;;9.97;;
17967;SDS011;9109;48.050;11.696;2023-03-07T22:22:39;21.10;;;9.50;;
17967;SDS011;9109;48.050;11.696;2023-03-07T22:26:25;20.70;;;9.70;;
17967;SDS011;9109;48.050;11.696;2023-03-07T22:33:43;24.43;;;9.63;;
17967;SDS011;9109;48.050;11.696;2023-03-07T22:37:23;19.20;;;9.43;;
17967;SDS011;9109;48.050;11.696;2023-03-07T22:40:52;22.17;;;9.00;;
17967;SDS011;9109;48.050;11.696;2023-03-07T22:44:29;22.57;;;9.30;;
17967;SDS011;9109;48.050;11.696;2023-03-07T22:48:02;24.43;;;9.73;;
17967;SDS011;9109;48.050;11.696;2023-03-07T22:59:02;26.10;;;9.33;;
17967;SDS011;9109;48.050;11.696;2023-03-07T23:02:27;27.67;;;9.83;;
17967;SDS011;9109;48.050;11.696;2023-03-07T23:05:57;25.93;;;9.63;;
17967;SDS011;9109;48.050;11.696;2023-03-07T23:09:27;25.17;;;10.03;;
17967;SDS011;9109;48.050;11.696;2023-03-07T23:27:51;34.63;;;9.73;;
17967;SDS011;9109;48.050;11.696;2023-03-07T23:31:18;24.97;;;10.07;;
17967;SDS011;9109;48.050;11.696;2023-03-07T23:34:30;21.27;;;9.07;;
17967;SDS011;9109;48.050;11.696;2023-03-07T23:37:49;25.83;;;9.90;;
